Time;durP1;ratioP1;P1;durP2;ratioP2;P2;SDS_P1;SDS_P2;PMS_P1;PMS_P2;Temp;Humidity;BMP_temperature;BMP_pressure;BME280_temperature;BME280_humidity;BME280_pressure;Samples;Min_cycle;Max_cycle;Signal;HPM_P1;HPM_P2
2024/01/29 00:00:15;;;;;;;4.17;2.30;;;;;;;-2.17;100.00;101875.97;4968141;28;20622;-70
2024/01/29 00:02:44;;;;;;;6.73;3.37;;;;;;;-2.10;100.00;101901.66;4960987;28;20224;-70
2024/01/29 00:05:10;;;;;;;4.37;2.63;;;;;;;-2.16;100.00;101898.53;4965409;28;20198;-70
2024/01/29 00:07:37;;;;;;;6.47;2.60;;;;;;;-2.22;100.00;101885.94;4969764;28;20264;-71
2024/01/29 00:10:05;;;;;;;7.70;2.63;;;;;;;-2.23;100.00;101886.72;4964717;28;20710;-71
2024/01/29 00:12:31;;;;;;;5.20;2.70;;;;;;;-2.24;100.00;101892.69;4965479;28;20231;-71
2024/01/29 00:14:58;;;;;;;3.50;2.23;;;;;;;-2.24;100.00;101887.50;4961806;28;20210;-70
2024/01/29 00:17:24;;;;;;;7.03;2.83;;;;;;;-2.17;100.00;101886.34;4961764;28;20215;-70
2024/01/29 00:19:51;;;;;;;11.10;2.77;;;;;;;-2.15;100.00;101889.97;4967855;28;20420;-70
2024/01/29 00:22:17;;;;;;;4.40;2.60;;;;;;;-2.06;100.00;101893.38;4968220;28;20214;-70
2024/01/29 00:24:44;;;;;;;9.20;2.33;;;;;;;-2.03;100.00;101891.03;4969221;28;20194;-70
2024/01/29 00:27:10;;;;;;;8.03;3.03;;;;;;;-1.80;100.00;101886.94;4963993;28;20204;-71
2024/01/29 00:29:36;;;;;;;6.13;3.00;;;;;;;-1.86;100.00;101889.03;4972149;28;20228;-71
2024/01/29 00:32:03;;;;;;;5.47;2.87;;;;;;;-1.98;100.00;101888.88;4971372;28;20653;-69
2024/01/29 00:34:30;;;;;;;10.37;2.60;;;;;;;-1.97;100.00;101885.50;4969768;28;20258;-70
2024/01/29 00:36:56;;;;;;;6.13;3.10;;;;;;;-2.05;100.00;101889.09;4973607;28;20205;-71
2024/01/29 00:39:23;;;;;;;4.10;2.90;;;;;;;-2.09;100.00;101887.00;4973420;28;20679;-70
2024/01/29 00:41:50;;;;;;;8.43;2.67;;;;;;;-2.16;100.00;101888.16;4969634;28;20198;-70
2024/01/29 00:44:17;;;;;;;7.77;3.33;;;;;;;-2.21;100.00;101886.84;4971619;28;20589;-70
2024/01/29 00:46:43;;;;;;;5.83;2.77;;;;;;;-2.22;100.00;101893.72;4968841;28;20671;-70
2024/01/29 00:49:10;;;;;;;11.47;5.83;;;;;;;-2.27;100.00;101902.78;4973687;28;20218;-70
2024/01/29 00:51:36;;;;;;;7.37;3.13;;;;;;;-2.32;100.00;101896.28;4972698;28;20205;-71
2024/01/29 00:54:03;;;;;;;4.37;2.73;;;;;;;-2.37;100.00;101888.88;4970649;28;20221;-70
2024/01/29 00:56:29;;;;;;;4.73;2.57;;;;;;;-2.34;100.00;101896.94;4965619;28;20208;-70
2024/01/29 00:58:56;;;;;;;6.07;2.70;;;;;;;-2.35;100.00;101888.25;4971609;28;20580;-71
2024/01/29 01:01:22;;;;;;;11.17;6.43;;;;;;;-2.35;100.00;101893.44;4967816;28;20294;-70
2024/01/29 01:03:49;;;;;;;11.37;5.77;;;;;;;-2.29;100.00;101885.28;4971727;28;20276;-70
2024/01/29 01:06:15;;;;;;;10.20;5.90;;;;;;;-2.27;100.00;101899.28;4968334;28;20210;-70
2024/01/29 01:08:42;;;;;;;11.40;5.70;;;;;;;-2.24;100.00;101884.91;4967736;28;20443;-70
2024/01/29 01:11:08;;;;;;;9.63;5.00;;;;;;;-2.04;100.00;101897.00;4970067;28;20234;-70
2024/01/29 01:13:34;;;;;;;8.10;4.73;;;;;;;-2.04;100.00;101888.31;4975096;28;20221;-70
2024/01/29 01:16:01;;;;;;;7.57;4.40;;;;;;;-2.11;100.00;101878.19;4966985;28;20201;-70
2024/01/29 01:18:28;;;;;;;9.73;4.60;;;;;;;-2.13;100.00;101882.31;4965036;28;20716;-70
2024/01/29 01:20:55;;;;;;;4.90;2.53;;;;;;;-2.18;100.00;101886.22;4968656;28;20256;-70
2024/01/29 01:23:21;;;;;;;4.90;2.57;;;;;;;-1.98;100.00;101887.19;4965281;28;20964;-70
2024/01/29 01:25:47;;;;;;;4.73;2.23;;;;;;;-1.93;100.00;101883.31;4970760;28;20288;-70
2024/01/29 01:28:14;;;;;;;3.73;2.13;;;;;;;-2.00;100.00;101891.34;4968132;28;20241;-70
2024/01/29 01:30:40;;;;;;;2.87;1.50;;;;;;;-2.10;100.00;101885.19;4968571;28;20226;-70
2024/01/29 01:33:07;;;;;;;3.40;1.87;;;;;;;-2.17;100.00;101881.16;4971566;28;20215;-70
2024/01/29 01:35:33;;;;;;;2.13;1.33;;;;;;;-2.26;100.00;101881.25;4971795;28;20201;-70
2024/01/29 01:38:00;;;;;;;3.37;1.73;;;;;;;-2.35;100.00;101879.53;4969396;28;20213;-71
2024/01/29 01:40:26;;;;;;;3.07;1.80;;;;;;;-2.34;100.00;101891.75;4962260;28;20194;-70
2024/01/29 01:42:53;;;;;;;4.77;2.30;;;;;;;-2.40;100.00;101884.34;4965257;28;20692;-70
2024/01/29 01:45:19;;;;;;;3.53;1.67;;;;;;;-2.42;100.00;101884.94;4972178;28;20194;-69
2024/01/29 01:47:46;;;;;;;3.63;1.93;;;;;;;-2.41;100.00;101895.44;4970456;28;20237;-70
2024/01/29 01:50:12;;;;;;;3.13;1.80;;;;;;;-2.47;100.00;101894.91;4982090;28;20715;-70
2024/01/29 01:52:40;;;;;;;6.47;3.67;;;;;;;-2.51;100.00;101890.22;4965857;28;20892;-70
2024/01/29 01:55:06;;;;;;;8.40;3.97;;;;;;;-2.33;100.00;101897.06;4971049;28;20207;-70
2024/01/29 01:57:34;;;;;;;7.03;4.20;;;;;;;-2.04;100.00;101902.19;4970364;28;20347;-70
2024/01/29 02:00:01;;;;;;;7.53;1.97;;;;;;;-1.91;100.00;101907.72;4971090;28;20197;-70
2024/01/29 02:02:29;;;;;;;3.80;1.87;;;;;;;-1.98;100.00;101901.84;4962798;28;20712;-69
2024/01/29 02:04:55;;;;;;;8.10;4.37;;;;;;;-2.11;100.00;101899.84;4972643;28;20194;-69
2024/01/29 02:07:22;;;;;;;3.10;2.17;;;;;;;-2.21;100.00;101897.22;4975115;28;20206;-69
2024/01/29 02:09:49;;;;;;;7.00;2.00;;;;;;;-2.19;100.00;101903.47;4979645;28;20827;-69
2024/01/29 02:12:15;;;;;;;7.83;2.37;;;;;;;-2.19;100.00;101903.47;4973449;28;20892;-70
2024/01/29 02:14:44;;;;;;;3.70;1.70;;;;;;;-2.22;100.00;101901.50;4968380;28;20195;-68
2024/01/29 02:17:10;;;;;;;3.07;1.73;;;;;;;-2.23;100.00;101904.88;4972003;28;20232;-69
2024/01/29 02:19:37;;;;;;;4.20;2.17;;;;;;;-2.16;100.00;101906.31;4969624;28;20205;-69
2024/01/29 02:22:04;;;;;;;3.57;1.80;;;;;;;-2.14;100.00;101899.59;4968330;28;20227;-69
2024/01/29 02:24:31;;;;;;;5.53;2.50;;;;;;;-2.11;100.00;101901.53;4964907;28;20198;-69
2024/01/29 02:26:58;;;;;;;5.20;2.23;;;;;;;-2.14;100.00;101898.66;4971189;28;20326;-70
2024/01/29 02:29:24;;;;;;;4.23;2.27;;;;;;;-2.11;100.00;101915.41;4969564;28;20277;-69
2024/01/29 02:31:51;;;;;;;3.30;2.30;;;;;;;-2.19;100.00;101903.47;4965194;28;20298;-69
2024/01/29 02:34:17;;;;;;;14.87;2.33;;;;;;;-2.26;100.00;101901.09;4968784;28;20202;-69
2024/01/29 02:36:44;;;;;;;4.80;2.10;;;;;;;-2.29;100.00;101899.16;4969646;28;20199;-68
2024/01/29 02:39:10;;;;;;;4.53;2.10;;;;;;;-2.33;100.00;101898.75;4966786;28;20236;-69
2024/01/29 02:41:37;;;;;;;5.50;2.47;;;;;;;-2.29;100.00;101901.75;4964461;28;20210;-69
2024/01/29 02:44:03;;;;;;;4.43;2.37;;;;;;;-2.29;100.00;101900.84;4967205;28;20220;-69
2024/01/29 02:46:30;;;;;;;4.93;2.60;;;;;;;-2.35;100.00;101900.31;4965683;28;20213;-69
2024/01/29 02:48:56;;;;;;;3.07;2.00;;;;;;;-2.38;100.00;101903.53;4964756;28;20331;-69
2024/01/29 02:51:23;;;;;;;3.17;2.27;;;;;;;-2.39;100.00;101893.03;4966695;28;20225;-69
2024/01/29 02:53:50;;;;;;;4.33;2.33;;;;;;;-2.40;100.00;101886.94;4965623;28;20481;-70
2024/01/29 02:56:16;;;;;;;3.37;2.13;;;;;;;-2.34;100.00;101896.94;4967605;28;20202;-69
2024/01/29 02:58:43;;;;;;;7.50;2.70;;;;;;;-2.34;100.00;101900.44;4967320;28;20716;-69
2024/01/29 03:01:09;;;;;;;4.13;2.27;;;;;;;-2.25;100.00;101897.75;4961943;28;20278;-69
2024/01/29 03:03:36;;;;;;;8.47;2.13;;;;;;;-2.01;100.00;101902.47;4964827;28;20232;-69
2024/01/29 03:06:03;;;;;;;2.80;1.57;;;;;;;-1.88;100.00;101898.38;4965298;28;20230;-69
2024/01/29 03:08:30;;;;;;;5.30;2.37;;;;;;;-2.06;100.00;101890.78;4961325;28;20225;-69
2024/01/29 03:10:56;;;;;;;3.60;2.00;;;;;;;-2.18;100.00;101881.03;4966925;28;20225;-70
2024/01/29 03:13:23;;;;;;;7.00;3.63;;;;;;;-2.23;100.00;101885.81;4963655;28;20343;-69
2024/01/29 03:15:49;;;;;;;6.60;4.07;;;;;;;-2.30;100.00;101880.84;4967924;28;20577;-69
2024/01/29 03:18:16;;;;;;;3.03;1.83;;;;;;;-2.31;100.00;101873.84;4968091;28;20202;-69
2024/01/29 03:20:42;;;;;;;8.03;3.87;;;;;;;-2.30;100.00;101870.47;4962845;28;20281;-69
2024/01/29 03:23:10;;;;;;;5.53;3.50;;;;;;;-2.09;100.00;101887.00;4967098;28;20516;-69
2024/01/29 03:25:36;;;;;;;7.20;4.00;;;;;;;-2.16;100.00;101882.97;4963892;28;20894;-69
2024/01/29 03:28:03;;;;;;;2.57;1.90;;;;;;;-2.26;100.00;101881.25;4964331;28;20583;-69
2024/01/29 03:30:30;;;;;;;2.90;1.90;;;;;;;-2.30;100.00;101879.16;4966870;28;20215;-69
2024/01/29 03:32:57;;;;;;;2.80;1.50;;;;;;;-2.36;100.00;101878.63;4958646;28;20743;-69
2024/01/29 03:35:23;;;;;;;2.30;1.50;;;;;;;-2.32;100.00;101883.31;4963000;28;20757;-69
2024/01/29 03:37:50;;;;;;;4.60;2.03;;;;;;;-2.34;100.00;101881.38;4964894;28;20543;-69
2024/01/29 03:40:16;;;;;;;4.33;2.07;;;;;;;-2.35;100.00;101876.94;4962789;28;20573;-69
2024/01/29 03:42:43;;;;;;;9.43;2.10;;;;;;;-2.36;100.00;101869.94;4968669;28;20221;-69
2024/01/29 03:45:09;;;;;;;4.03;1.70;;;;;;;-2.33;100.00;101872.81;4967687;28;20622;-69
2024/01/29 03:47:36;;;;;;;9.17;3.73;;;;;;;-2.38;100.00;101867.22;4961867;28;20240;-69
2024/01/29 03:50:03;;;;;;;2.40;1.70;;;;;;;-2.40;100.00;101873.00;4964111;28;20223;-69
2024/01/29 03:52:30;;;;;;;2.63;2.07;;;;;;;-2.43;100.00;101870.16;4965242;28;20222;-69
2024/01/29 03:54:56;;;;;;;6.93;1.70;;;;;;;-2.43;100.00;101873.66;4963041;28;20206;-69
2024/01/29 03:57:25;;;;;;;3.47;1.30;;;;;;;-2.41;100.00;101861.72;4961296;28;20213;-69
2024/01/29 03:59:56;;;;;;;5.27;2.07;;;;;;;-2.38;100.00;101876.69;4963763;28;20270;-70
2024/01/29 04:02:23;;;;;;;3.90;1.77;;;;;;;-2.31;100.00;101863.47;4965733;28;20305;-69
2024/01/29 04:04:50;;;;;;;5.67;1.97;;;;;;;-2.22;100.00;101857.41;4970327;28;20208;-69
2024/01/29 04:07:16;;;;;;;4.97;2.00;;;;;;;-2.15;100.00;101866.63;4967463;28;20212;-69
2024/01/29 04:09:43;;;;;;;4.67;2.23;;;;;;;-2.15;100.00;101868.31;4960701;28;20207;-69
2024/01/29 04:12:10;;;;;;;6.83;3.80;;;;;;;-2.24;100.00;101865.81;4969265;28;20215;-69
2024/01/29 04:14:36;;;;;;;5.47;3.23;;;;;;;-2.30;100.00;101863.59;4964503;28;20467;-69
2024/01/29 04:17:06;;;;;;;6.27;3.40;;;;;;;-2.29;100.00;101869.72;4964531;28;20206;-70
2024/01/29 04:19:33;;;;;;;2.87;1.63;;;;;;;-2.26;100.00;101852.72;4958684;28;20215;-69
2024/01/29 04:21:59;;;;;;;6.33;3.90;;;;;;;-2.10;100.00;101867.03;4964249;28;20194;-69
2024/01/29 04:24:28;;;;;;;2.47;1.43;;;;;;;-2.22;100.00;101870.38;4959913;28;20205;-69
2024/01/29 04:26:55;;;;;;;2.00;1.47;;;;;;;-2.34;100.00;101869.31;4961097;28;20230;-69
2024/01/29 04:29:21;;;;;;;3.70;1.57;;;;;;;-2.38;100.00;101866.31;4965511;28;20207;-69
2024/01/29 04:31:48;;;;;;;9.90;3.60;;;;;;;-2.37;100.00;101866.44;4962108;28;20232;-68
2024/01/29 04:34:14;;;;;;;1.97;1.43;;;;;;;-2.35;100.00;101867.47;4967076;28;20700;-69
2024/01/29 04:36:41;;;;;;;1.53;1.27;;;;;;;-2.37;100.00;101868.13;4960366;28;20390;-70
2024/01/29 04:39:08;;;;;;;2.73;1.30;;;;;;;-2.28;100.00;101863.75;4961489;28;20262;-69
2024/01/29 04:41:34;;;;;;;3.87;1.50;;;;;;;-2.23;100.00;101863.38;4962416;28;20208;-69
2024/01/29 04:44:00;;;;;;;2.50;1.40;;;;;;;-2.13;100.00;101861.56;4962410;28;20276;-69
2024/01/29 04:46:27;;;;;;;2.60;1.77;;;;;;;-2.21;100.00;101860.91;4962580;28;20198;-69
2024/01/29 04:48:53;;;;;;;2.07;1.37;;;;;;;-2.26;100.00;101857.91;4964749;28;20228;-69
2024/01/29 04:51:20;;;;;;;3.73;1.60;;;;;;;-2.32;100.00;101862.56;4960629;28;20504;-69
2024/01/29 04:53:47;;;;;;;4.50;1.73;;;;;;;-2.35;100.00;101859.69;4960975;28;20231;-69
2024/01/29 04:56:13;;;;;;;5.77;1.33;;;;;;;-2.40;100.00;101860.03;4962221;28;20202;-70
2024/01/29 04:58:40;;;;;;;2.63;1.33;;;;;;;-2.43;100.00;101868.47;4964057;28;20201;-69
2024/01/29 05:01:06;;;;;;;3.03;1.53;;;;;;;-2.49;100.00;101859.25;4964633;28;20199;-69
2024/01/29 05:03:33;;;;;;;3.90;2.10;;;;;;;-2.48;100.00;101858.47;4959844;28;20434;-69
2024/01/29 05:05:59;;;;;;;3.53;1.80;;;;;;;-2.54;100.00;101864.94;4961909;28;20744;-69
2024/01/29 05:08:26;;;;;;;2.23;1.67;;;;;;;-2.31;100.00;101869.56;4962944;28;20568;-69
2024/01/29 05:10:52;;;;;;;6.70;1.93;;;;;;;-2.30;100.00;101867.88;4966786;28;20222;-70
2024/01/29 05:13:19;;;;;;;3.33;1.70;;;;;;;-2.35;100.00;101872.69;4961379;28;20235;-68
2024/01/29 05:15:45;;;;;;;3.33;2.13;;;;;;;-2.33;100.00;101878.00;4973079;28;20289;-69
2024/01/29 05:18:12;;;;;;;5.07;2.50;;;;;;;-2.41;100.00;101864.31;4965469;28;20194;-69
2024/01/29 05:20:38;;;;;;;3.73;1.87;;;;;;;-2.54;100.00;101851.97;4981128;28;20209;-69
2024/01/29 05:23:05;;;;;;;2.53;1.90;;;;;;;-2.48;100.00;101868.84;4968495;28;20221;-68
2024/01/29 05:25:32;;;;;;;3.17;1.80;;;;;;;-2.46;100.00;101875.06;4969365;28;20198;-69
2024/01/29 05:27:58;;;;;;;6.30;2.17;;;;;;;-2.45;100.00;101875.19;4966894;28;20214;-69
2024/01/29 05:30:25;;;;;;;4.13;1.73;;;;;;;-2.50;100.00;101866.09;4967259;28;20347;-70
2024/01/29 05:32:52;;;;;;;3.77;1.67;;;;;;;-2.50;100.00;101871.28;4965776;28;20238;-69
2024/01/29 05:35:18;;;;;;;7.57;3.70;;;;;;;-2.41;100.00;101876.38;4972276;28;20207;-69
2024/01/29 05:37:45;;;;;;;3.33;2.17;;;;;;;-2.42;100.00;101874.56;4971301;28;20298;-69
2024/01/29 05:40:11;;;;;;;4.50;1.77;;;;;;;-2.46;100.00;101868.19;4966266;28;20226;-69
2024/01/29 05:42:38;;;;;;;3.43;1.60;;;;;;;-2.46;100.00;101878.56;4963351;28;20225;-69
2024/01/29 05:45:05;;;;;;;2.97;1.83;;;;;;;-2.40;100.00;101879.16;4965415;28;20206;-68
2024/01/29 05:47:33;;;;;;;1.90;1.43;;;;;;;-2.11;100.00;101878.19;4969740;28;20324;-69
2024/01/29 05:50:00;;;;;;;1.93;1.37;;;;;;;-2.16;100.00;101885.56;4969254;28;20294;-69
2024/01/29 05:52:27;;;;;;;3.20;2.00;;;;;;;-2.19;100.00;101890.50;4969712;28;20222;-69
2024/01/29 05:54:54;;;;;;;2.23;1.80;;;;;;;-2.18;100.00;101884.53;4971887;28;20206;-69
2024/01/29 05:57:20;;;;;;;6.77;2.60;;;;;;;-2.03;100.00;101888.44;4970265;28;20686;-70
2024/01/29 05:59:46;;;;;;;2.60;1.83;;;;;;;-2.11;100.00;101885.97;4969256;28;20199;-69
2024/01/29 06:02:13;;;;;;;10.10;5.17;;;;;;;-2.14;100.00;101888.28;4969997;28;20241;-69
2024/01/29 06:04:40;;;;;;;4.00;2.03;;;;;;;-2.25;100.00;101877.88;4971128;28;20730;-68
2024/01/29 06:07:06;;;;;;;5.10;2.10;;;;;;;-2.22;100.00;101893.72;4969446;28;20201;-69
2024/01/29 06:09:33;;;;;;;9.63;2.30;;;;;;;-2.23;100.00;101894.50;4971525;28;20670;-69
2024/01/29 06:11:59;;;;;;;3.00;2.17;;;;;;;-2.15;100.00;101896.84;4972244;28;20304;-69
2024/01/29 06:14:26;;;;;;;7.53;5.00;;;;;;;-2.19;100.00;101893.09;4970245;28;20223;-70
2024/01/29 06:16:56;;;;;;;5.87;2.93;;;;;;;-2.18;100.00;101894.00;4967134;28;20211;-69
2024/01/29 06:19:23;;;;;;;7.83;3.07;;;;;;;-2.14;100.00;101894.38;4969627;28;20601;-69
2024/01/29 06:21:50;;;;;;;5.40;2.67;;;;;;;-2.02;100.00;101897.13;4970897;28;20203;-69
2024/01/29 06:24:16;;;;;;;6.63;3.27;;;;;;;-2.00;100.00;101906.91;4970006;28;20635;-68
2024/01/29 06:26:43;;;;;;;6.93;3.40;;;;;;;-2.04;100.00;101898.69;4943684;28;20353;-67
2024/01/29 06:29:13;;;;;;;5.80;2.90;;;;;;;-2.09;100.00;101899.97;4958667;28;20202;-67
2024/01/29 06:31:40;;;;;;;6.87;3.13;;;;;;;-1.87;100.00;101906.28;4960832;28;20214;-68
2024/01/29 06:34:06;;;;;;;6.20;3.63;;;;;;;-1.81;100.00;101906.81;4962304;28;20215;-68
2024/01/29 06:36:33;;;;;;;6.87;3.93;;;;;;;-1.86;100.00;101899.41;4961127;28;20301;-68
2024/01/29 06:39:00;;;;;;;6.63;3.57;;;;;;;-1.92;100.00;101908.47;4965013;28;20231;-69
2024/01/29 06:41:27;;;;;;;6.77;3.27;;;;;;;-1.92;100.00;101902.38;4957528;28;20198;-68
2024/01/29 06:43:54;;;;;;;5.87;3.43;;;;;;;-1.92;100.00;101905.88;4960219;28;20315;-69
2024/01/29 06:46:21;;;;;;;5.10;2.87;;;;;;;-1.96;100.00;101898.63;4958608;28;20568;-69
2024/01/29 06:48:47;;;;;;;4.20;2.60;;;;;;;-1.94;100.00;101910.03;4963576;28;20199;-68
2024/01/29 06:51:15;;;;;;;4.80;2.30;;;;;;;-1.96;100.00;101913.28;4959896;28;20404;-69
2024/01/29 06:53:43;;;;;;;7.00;2.70;;;;;;;-1.98;100.00;101917.44;4960329;28;20219;-68
2024/01/29 06:56:09;;;;;;;4.07;2.47;;;;;;;-1.93;100.00;101919.66;4958189;28;20205;-68
2024/01/29 06:58:38;;;;;;;5.20;2.57;;;;;;;-1.92;100.00;101921.47;4961568;28;20403;-68
2024/01/29 07:01:05;;;;;;;13.53;6.90;;;;;;;-1.76;100.00;101920.19;4961274;28;20194;-68
2024/01/29 07:03:32;;;;;;;7.80;3.67;;;;;;;-1.81;100.00;101922.41;4961669;28;20675;-69
2024/01/29 07:05:59;;;;;;;7.03;3.07;;;;;;;-1.79;100.00;101939.00;4950885;28;20207;-68
2024/01/29 07:08:26;;;;;;;9.27;4.47;;;;;;;-1.82;100.00;101936.16;4962315;28;20687;-70
2024/01/29 07:10:52;;;;;;;14.93;5.33;;;;;;;-1.54;100.00;101946.34;4961012;28;20231;-68
2024/01/29 07:13:19;;;;;;;7.43;3.87;;;;;;;-1.56;100.00;101947.91;4954861;28;20224;-68
2024/01/29 07:15:45;;;;;;;6.93;3.20;;;;;;;-1.55;100.00;101952.31;4954463;28;20758;-66
2024/01/29 07:18:12;;;;;;;7.23;3.77;;;;;;;-1.49;100.00;101943.38;4957211;28;20206;-66
2024/01/29 07:20:39;;;;;;;9.90;3.70;;;;;;;-1.45;100.00;101949.72;4948516;28;20693;-67
2024/01/29 07:23:07;;;;;;;8.10;3.60;;;;;;;-1.38;100.00;101952.97;4960900;28;20236;-67
2024/01/29 07:25:35;;;;;;;10.40;4.27;;;;;;;-1.28;100.00;101954.66;4963313;28;20270;-68
2024/01/29 07:28:04;;;;;;;9.13;4.13;;;;;;;-1.14;100.00;101951.56;4960163;28;20203;-68
2024/01/29 07:30:31;;;;;;;11.00;4.20;;;;;;;-1.02;100.00;101951.69;4959958;28;20207;-67
2024/01/29 07:32:58;;;;;;;8.80;4.90;;;;;;;-0.87;100.00;101958.19;4960081;28;20249;-67
2024/01/29 07:35:25;;;;;;;9.80;4.47;;;;;;;-0.73;100.00;101956.75;4961304;28;20214;-69
2024/01/29 07:37:52;;;;;;;10.00;3.97;;;;;;;-0.63;100.00;101959.31;4959667;28;20322;-70
2024/01/29 07:40:22;;;;;;;12.50;4.43;;;;;;;-0.54;100.00;101960.06;4962734;28;20863;-68
2024/01/29 07:42:49;;;;;;;8.83;4.87;;;;;;;-0.46;100.00;101961.63;4961949;28;20319;-68
2024/01/29 07:45:16;;;;;;;11.13;4.97;;;;;;;-0.43;100.00;101956.66;4966545;28;20266;-68
2024/01/29 07:47:44;;;;;;;10.70;4.30;;;;;;;-0.45;100.00;101965.13;4958545;28;20430;-67
2024/01/29 07:50:11;;;;;;;11.50;4.90;;;;;;;-0.30;100.00;101962.88;4956598;28;20219;-68
2024/01/29 07:52:37;;;;;;;9.73;4.30;;;;;;;-0.36;100.00;101971.09;4963858;28;20231;-68
2024/01/29 07:55:04;;;;;;;9.73;4.80;;;;;;;-0.37;100.00;101965.00;4963597;28;20291;-69
2024/01/29 07:57:30;;;;;;;10.57;5.30;;;;;;;-0.35;100.00;101976.44;4958962;28;20201;-68
2024/01/29 07:59:57;;;;;;;12.07;4.80;;;;;;;-0.30;100.00;101962.88;4960746;28;20209;-68
2024/01/29 08:02:24;;;;;;;10.83;5.10;;;;;;;-0.27;100.00;101963.13;4963106;28;20221;-70
2024/01/29 08:04:50;;;;;;;10.30;5.10;;;;;;;-0.24;100.00;101960.78;4961092;28;20264;-68
2024/01/29 08:07:17;;;;;;;9.23;4.43;;;;;;;-0.19;100.00;101965.56;4960003;28;20209;-69
2024/01/29 08:09:45;;;;;;;9.00;4.80;;;;;;;-0.14;100.00;101963.34;4958102;28;20576;-68
2024/01/29 08:12:11;;;;;;;10.23;5.57;;;;;;;-0.02;100.00;101974.75;4961652;28;20231;-70
2024/01/29 08:14:38;;;;;;;10.77;5.27;;;;;;;-0.01;100.00;101974.88;4960915;28;20264;-71
2024/01/29 08:17:05;;;;;;;9.20;4.87;;;;;;;0.11;100.00;101969.75;4959658;28;20211;-67
2024/01/29 08:19:31;;;;;;;9.20;4.90;;;;;;;0.19;100.00;101975.56;4959775;28;20201;-69
2024/01/29 08:21:58;;;;;;;13.33;6.13;;;;;;;0.38;100.00;101977.94;4959975;28;20228;-68
2024/01/29 08:24:25;;;;;;;14.87;6.80;;;;;;;0.43;100.00;101980.16;4959580;28;20220;-67
2024/01/29 08:26:52;;;;;;;10.67;5.77;;;;;;;0.51;100.00;101976.44;4960117;28;20213;-68
2024/01/29 08:29:18;;;;;;;11.93;6.73;;;;;;;0.63;100.00;101979.09;4961700;28;20202;-69
2024/01/29 08:31:45;;;;;;;12.30;7.00;;;;;;;0.63;100.00;101981.69;4973758;28;20245;-67
2024/01/29 08:34:11;;;;;;;10.97;5.63;;;;;;;0.65;100.00;101980.13;4956523;28;20518;-68
2024/01/29 08:36:38;;;;;;;11.50;5.10;;;;;;;0.71;100.00;101977.06;4965169;28;20256;-68
2024/01/29 08:39:05;;;;;;;13.37;6.33;;;;;;;0.82;100.00;101981.47;4960875;28;20715;-69
2024/01/29 08:41:31;;;;;;;13.20;6.67;;;;;;;0.94;100.00;101971.97;4962321;28;21056;-71
2024/01/29 08:43:57;;;;;;;15.17;6.40;;;;;;;1.01;100.00;101971.63;4960360;28;20417;-75
2024/01/29 08:46:25;;;;;;;12.63;6.90;;;;;;;1.14;100.00;101977.00;4962658;28;20282;-71
2024/01/29 08:48:53;;;;;;;13.70;7.20;;;;;;;1.13;100.00;101961.22;4962519;28;20581;-71
2024/01/29 08:51:20;;;;;;;13.03;6.73;;;;;;;1.12;100.00;101968.13;4963769;28;20232;-71
2024/01/29 08:53:47;;;;;;;12.50;6.53;;;;;;;1.22;100.00;101973.28;4963911;28;20767;-74
2024/01/29 08:56:13;;;;;;;12.23;6.33;;;;;;;1.30;100.00;101968.66;4964848;28;20757;-71
2024/01/29 08:58:40;;;;;;;14.60;7.80;;;;;;;1.44;100.00;101965.38;4965012;28;20198;-70
2024/01/29 09:01:06;;;;;;;17.77;8.73;;;;;;;1.57;100.00;101964.56;4965660;28;20266;-74
2024/01/29 09:03:33;;;;;;;17.63;8.17;;;;;;;1.64;100.00;101948.59;4970335;28;20283;-72
2024/01/29 09:05:59;;;;;;;17.57;8.53;;;;;;;1.78;100.00;101958.34;4961550;28;20266;-73
2024/01/29 09:08:27;;;;;;;17.60;9.63;;;;;;;1.87;100.00;101966.84;4964326;28;20223;-73
2024/01/29 09:10:54;;;;;;;18.87;8.63;;;;;;;2.02;100.00;101954.00;4961750;28;20303;-70
2024/01/29 09:13:21;;;;;;;17.00;8.73;;;;;;;2.22;100.00;101960.66;4963902;28;20287;-72
2024/01/29 09:15:47;;;;;;;16.43;8.70;;;;;;;2.36;100.00;101957.31;4964328;28;20224;-70
2024/01/29 09:18:13;;;;;;;14.73;9.13;;;;;;;2.56;100.00;101961.34;4966790;28;20266;-70
2024/01/29 09:20:40;;;;;;;21.40;10.17;;;;;;;2.66;100.00;101965.50;4962375;28;20208;-71
2024/01/29 09:23:07;;;;;;;18.70;9.87;;;;;;;2.74;100.00;101966.94;4964198;28;20229;-72
2024/01/29 09:25:33;;;;;;;17.30;9.30;;;;;;;2.92;100.00;101969.97;4962217;28;21688;-70
2024/01/29 09:28:00;;;;;;;16.27;8.50;;;;;;;3.10;100.00;101959.03;4962995;28;20227;-71
2024/01/29 09:30:26;;;;;;;13.73;8.43;;;;;;;3.34;100.00;101959.81;4962835;28;20201;-72
2024/01/29 09:32:55;;;;;;;20.57;9.97;;;;;;;3.54;100.00;101957.59;4961648;28;20308;-72
2024/01/29 09:35:36;;;;;;;15.40;8.70;;;;;;;3.81;100.00;101951.56;4971206;28;20205;-71
2024/01/29 09:38:03;;;;;;;21.93;9.17;;;;;;;4.04;100.00;101953.97;4970604;28;20765;-72
2024/01/29 09:40:29;;;;;;;15.60;9.00;;;;;;;4.19;100.00;101950.53;4969512;28;20313;-72
2024/01/29 09:42:58;;;;;;;18.23;9.83;;;;;;;4.42;100.00;101962.50;4959753;28;20753;-71
2024/01/29 09:45:25;;;;;;;17.17;10.10;;;;;;;4.43;100.00;101957.34;4956590;28;20210;-70
2024/01/29 09:47:54;;;;;;;16.63;9.57;;;;;;;4.41;100.00;101953.72;4963535;28;20591;-70
2024/01/29 09:50:22;;;;;;;17.07;9.37;;;;;;;4.57;100.00;101969.59;4972333;28;20255;-71
2024/01/29 09:52:52;;;;;;;16.13;8.53;;;;;;;4.59;100.00;101965.34;4972097;28;20229;-71
2024/01/29 09:55:23;;;;;;;21.07;10.20;;;;;;;4.65;100.00;101975.31;4972827;28;20220;-72
2024/01/29 09:57:50;;;;;;;19.57;10.90;;;;;;;4.65;100.00;101970.97;4967610;28;20205;-72
2024/01/29 10:00:17;;;;;;;21.50;11.73;;;;;;;4.65;100.00;101972.69;4969887;28;20202;-71
2024/01/29 10:02:44;;;;;;;24.00;12.57;;;;;;;4.76;100.00;101970.72;4968072;28;20313;-71
2024/01/29 10:05:11;;;;;;;24.33;12.00;;;;;;;4.87;100.00;101967.97;4970905;28;20202;-71
2024/01/29 10:07:39;;;;;;;20.13;11.93;;;;;;;4.95;100.00;101973.69;4972170;28;20569;-72
2024/01/29 10:10:08;;;;;;;20.20;11.73;;;;;;;5.02;100.00;101965.38;4972684;28;20217;-72
2024/01/29 10:12:35;;;;;;;21.97;12.07;;;;;;;5.14;100.00;101968.72;4974081;28;20226;-72
2024/01/29 10:15:01;;;;;;;25.53;12.40;;;;;;;5.18;100.00;101968.09;4971813;28;20213;-71
2024/01/29 10:17:28;;;;;;;22.50;11.67;;;;;;;5.17;100.00;101970.63;4972174;28;20206;-71
2024/01/29 10:19:55;;;;;;;20.67;12.13;;;;;;;5.20;100.00;101958.63;4971536;28;20280;-72
2024/01/29 10:22:26;;;;;;;21.53;12.17;;;;;;;5.21;100.00;101970.94;4970372;28;20219;-70
2024/01/29 10:25:03;;;;;;;23.13;12.77;;;;;;;5.20;100.00;101965.56;4972213;28;20205;-71
2024/01/29 10:27:30;;;;;;;21.93;12.13;;;;;;;5.22;100.00;101964.88;4963605;28;20297;-71
2024/01/29 10:29:57;;;;;;;22.90;12.87;;;;;;;5.35;100.00;101953.38;4955087;28;20202;-71
2024/01/29 10:32:23;;;;;;;27.57;13.17;;;;;;;5.46;100.00;101949.63;4963395;28;20228;-69
2024/01/29 10:34:50;;;;;;;21.67;12.37;;;;;;;5.68;100.00;101956.16;4970119;28;20207;-70
2024/01/29 10:37:20;;;;;;;18.83;11.37;;;;;;;5.78;100.00;101950.63;4965431;28;20697;-70
2024/01/29 10:39:47;;;;;;;21.17;13.07;;;;;;;5.85;100.00;101952.78;4963866;28;20293;-72
2024/01/29 10:42:27;;;;;;;21.00;11.97;;;;;;;5.77;100.00;101946.19;4966200;28;20245;-74
2024/01/29 10:45:00;;;;;;;23.27;11.90;;;;;;;5.56;100.00;101945.81;4969069;28;20290;-72
2024/01/29 10:47:35;;;;;;;24.43;13.60;;;;;;;5.58;100.00;101947.72;4967855;28;20680;-72
2024/01/29 10:50:02;;;;;;;25.52;15.05;;;;;;;5.65;100.00;101949.91;4966815;28;20465;-73
2024/01/29 10:52:30;;;;;;;21.20;12.50;;;;;;;5.73;100.00;101952.06;4966419;28;20494;-72
2024/01/29 10:54:58;;;;;;;23.17;12.50;;;;;;;5.70;100.00;101951.91;4969186;28;20202;-72
2024/01/29 10:57:25;;;;;;;21.93;12.43;;;;;;;5.71;100.00;101946.72;4967933;28;20347;-73
2024/01/29 10:59:53;;;;;;;25.80;12.97;;;;;;;5.75;100.00;101953.97;4967114;28;20211;-72
2024/01/29 11:02:20;;;;;;;23.83;13.37;;;;;;;5.72;100.00;101950.28;4968951;28;20313;-71
2024/01/29 11:04:47;;;;;;;21.50;12.40;;;;;;;5.78;100.00;101950.63;4970126;28;20299;-72
2024/01/29 11:07:24;;;;;;;23.20;13.27;;;;;;;5.83;100.00;101943.91;4968111;28;20294;-71
2024/01/29 11:10:00;;;;;;;23.17;13.27;;;;;;;5.95;100.00;101944.63;4965762;28;20204;-70
2024/01/29 11:12:27;;;;;;;25.37;13.10;;;;;;;6.02;100.00;101932.75;4971653;28;20358;-71